Terminal Aerodrome Forecast
Issued by NWS Riverton, WY

Home | Current Version | Previous Version | Text Only | Print | Product List | Glossary On
Versions: 1 2 3 4 5 6 7 8 9 10 11 12 13
000
FTUS45 KRIW 250533
TAFRIW
TAF
KRIW 250533Z 2506/2606 29013KT P6SM FEW090
     FM251100 30017G25KT P6SM FEW150
     FM251700 24007KT P6SM FEW150
     FM260200 21010KT P6SM SCT140 BKN200=

USA.gov is the U.S. government's official web portal to all federal, state and local government web resources and services.